sensor_id;sensor_type;location;lat;lon;timestamp;P1;durP1;ratioP1;P2;durP2;ratioP2
19782;SDS011;10051;40.294;-3.754;2022-08-19T00:00:16;2.45;;;0.60;;
19782;SDS011;10051;40.294;-3.754;2022-08-19T00:02:44;2.60;;;0.80;;
19782;SDS011;10051;40.294;-3.754;2022-08-19T00:05:11;2.58;;;0.80;;
19782;SDS011;10051;40.294;-3.754;2022-08-19T00:07:38;2.50;;;0.80;;
19782;SDS011;10051;40.294;-3.754;2022-08-19T00:10:06;2.90;;;0.77;;
19782;SDS011;10051;40.294;-3.754;2022-08-19T00:12:37;2.95;;;0.77;;
19782;SDS011;10051;40.294;-3.754;2022-08-19T00:15:04;1.75;;;0.80;;
19782;SDS011;10051;40.294;-3.754;2022-08-19T00:17:31;1.48;;;0.77;;
19782;SDS011;10051;40.294;-3.754;2022-08-19T00:19:57;3.35;;;0.80;;
19782;SDS011;10051;40.294;-3.754;2022-08-19T00:22:22;2.42;;;0.90;;
19782;SDS011;10051;40.294;-3.754;2022-08-19T00:24:48;1.85;;;0.80;;
19782;SDS011;10051;40.294;-3.754;2022-08-19T00:27:14;1.88;;;0.80;;
19782;SDS011;10051;40.294;-3.754;2022-08-19T00:29:39;3.65;;;0.80;;
19782;SDS011;10051;40.294;-3.754;2022-08-19T00:32:05;1.63;;;0.73;;
19782;SDS011;10051;40.294;-3.754;2022-08-19T00:34:31;1.25;;;0.60;;
19782;SDS011;10051;40.294;-3.754;2022-08-19T00:36:57;0.70;;;0.50;;
19782;SDS011;10051;40.294;-3.754;2022-08-19T00:39:23;1.95;;;0.70;;
19782;SDS011;10051;40.294;-3.754;2022-08-19T00:41:49;1.10;;;0.65;;
19782;SDS011;10051;40.294;-3.754;2022-08-19T00:44:16;1.20;;;0.70;;
19782;SDS011;10051;40.294;-3.754;2022-08-19T00:46:47;2.58;;;0.80;;
19782;SDS011;10051;40.294;-3.754;2022-08-19T00:49:15;3.17;;;0.70;;
19782;SDS011;10051;40.294;-3.754;2022-08-19T00:51:48;3.35;;;0.70;;
19782;SDS011;10051;40.294;-3.754;2022-08-19T00:54:16;1.05;;;0.60;;
19782;SDS011;10051;40.294;-3.754;2022-08-19T00:56:43;2.00;;;0.70;;
19782;SDS011;10051;40.294;-3.754;2022-08-19T00:59:09;3.13;;;0.77;;
19782;SDS011;10051;40.294;-3.754;2022-08-19T01:01:36;2.10;;;0.90;;
19782;SDS011;10051;40.294;-3.754;2022-08-19T01:04:03;1.45;;;0.90;;
19782;SDS011;10051;40.294;-3.754;2022-08-19T01:06:28;1.35;;;0.80;;
19782;SDS011;10051;40.294;-3.754;2022-08-19T01:08:57;2.10;;;0.65;;
19782;SDS011;10051;40.294;-3.754;2022-08-19T01:11:24;1.90;;;0.60;;
19782;SDS011;10051;40.294;-3.754;2022-08-19T01:13:51;2.03;;;0.80;;
19782;SDS011;10051;40.294;-3.754;2022-08-19T01:16:18;1.90;;;0.88;;
19782;SDS011;10051;40.294;-3.754;2022-08-19T01:18:46;1.20;;;0.70;;
19782;SDS011;10051;40.294;-3.754;2022-08-19T01:21:18;2.10;;;0.70;;
19782;SDS011;10051;40.294;-3.754;2022-08-19T01:23:46;2.50;;;0.82;;
19782;SDS011;10051;40.294;-3.754;2022-08-19T01:26:16;1.55;;;0.73;;
19782;SDS011;10051;40.294;-3.754;2022-08-19T01:28:44;2.53;;;0.77;;
19782;SDS011;10051;40.294;-3.754;2022-08-19T01:31:15;2.95;;;0.60;;
19782;SDS011;10051;40.294;-3.754;2022-08-19T01:33:44;2.60;;;0.70;;
19782;SDS011;10051;40.294;-3.754;2022-08-19T01:36:12;3.50;;;0.90;;
19782;SDS011;10051;40.294;-3.754;2022-08-19T01:38:47;1.17;;;0.77;;
19782;SDS011;10051;40.294;-3.754;2022-08-19T01:41:14;1.48;;;0.75;;
19782;SDS011;10051;40.294;-3.754;2022-08-19T01:43:41;1.08;;;0.60;;
19782;SDS011;10051;40.294;-3.754;2022-08-19T01:46:07;2.13;;;0.70;;
19782;SDS011;10051;40.294;-3.754;2022-08-19T01:48:36;2.53;;;0.65;;
19782;SDS011;10051;40.294;-3.754;2022-08-19T01:51:04;1.25;;;0.80;;
19782;SDS011;10051;40.294;-3.754;2022-08-19T01:53:30;2.17;;;0.70;;
19782;SDS011;10051;40.294;-3.754;2022-08-19T01:55:56;0.93;;;0.70;;
19782;SDS011;10051;40.294;-3.754;2022-08-19T01:58:22;2.15;;;0.60;;
19782;SDS011;10051;40.294;-3.754;2022-08-19T02:00:53;0.98;;;0.68;;
19782;SDS011;10051;40.294;-3.754;2022-08-19T02:03:18;2.00;;;0.75;;
19782;SDS011;10051;40.294;-3.754;2022-08-19T02:05:44;2.55;;;0.80;;
19782;SDS011;10051;40.294;-3.754;2022-08-19T02:08:10;1.00;;;0.80;;
19782;SDS011;10051;40.294;-3.754;2022-08-19T02:10:43;4.35;;;0.60;;
19782;SDS011;10051;40.294;-3.754;2022-08-19T02:13:09;1.08;;;0.70;;
19782;SDS011;10051;40.294;-3.754;2022-08-19T02:15:36;1.40;;;0.80;;
19782;SDS011;10051;40.294;-3.754;2022-08-19T02:18:02;1.17;;;0.70;;
19782;SDS011;10051;40.294;-3.754;2022-08-19T02:20:28;1.52;;;0.80;;
19782;SDS011;10051;40.294;-3.754;2022-08-19T02:22:53;1.77;;;0.70;;
19782;SDS011;10051;40.294;-3.754;2022-08-19T02:25:19;0.98;;;0.77;;
19782;SDS011;10051;40.294;-3.754;2022-08-19T02:27:44;1.75;;;0.60;;
19782;SDS011;10051;40.294;-3.754;2022-08-19T02:30:12;1.35;;;0.80;;
19782;SDS011;10051;40.294;-3.754;2022-08-19T02:32:40;1.42;;;0.80;;
19782;SDS011;10051;40.294;-3.754;2022-08-19T02:35:06;3.60;;;0.70;;
19782;SDS011;10051;40.294;-3.754;2022-08-19T02:37:32;2.33;;;0.60;;
19782;SDS011;10051;40.294;-3.754;2022-08-19T02:40:16;1.38;;;0.70;;
19782;SDS011;10051;40.294;-3.754;2022-08-19T02:42:43;1.83;;;0.80;;
19782;SDS011;10051;40.294;-3.754;2022-08-19T02:45:10;1.48;;;0.85;;
19782;SDS011;10051;40.294;-3.754;2022-08-19T02:47:37;2.45;;;0.70;;
19782;SDS011;10051;40.294;-3.754;2022-08-19T02:50:03;0.93;;;0.80;;
19782;SDS011;10051;40.294;-3.754;2022-08-19T02:52:29;2.65;;;0.80;;
19782;SDS011;10051;40.294;-3.754;2022-08-19T02:54:56;1.17;;;0.85;;
19782;SDS011;10051;40.294;-3.754;2022-08-19T02:57:22;2.75;;;0.90;;
19782;SDS011;10051;40.294;-3.754;2022-08-19T02:59:48;5.03;;;1.00;;
19782;SDS011;10051;40.294;-3.754;2022-08-19T03:02:14;1.65;;;0.80;;
19782;SDS011;10051;40.294;-3.754;2022-08-19T03:04:40;1.15;;;0.60;;
19782;SDS011;10051;40.294;-3.754;2022-08-19T03:07:07;1.00;;;0.60;;
19782;SDS011;10051;40.294;-3.754;2022-08-19T03:09:35;2.20;;;0.70;;
19782;SDS011;10051;40.294;-3.754;2022-08-19T03:12:02;1.30;;;0.75;;
19782;SDS011;10051;40.294;-3.754;2022-08-19T03:14:30;3.78;;;0.80;;
19782;SDS011;10051;40.294;-3.754;2022-08-19T03:16:58;1.27;;;0.60;;
19782;SDS011;10051;40.294;-3.754;2022-08-19T03:19:24;1.58;;;0.70;;
19782;SDS011;10051;40.294;-3.754;2022-08-19T03:21:50;2.42;;;0.82;;
19782;SDS011;10051;40.294;-3.754;2022-08-19T03:24:16;1.05;;;0.70;;
19782;SDS011;10051;40.294;-3.754;2022-08-19T03:26:45;1.45;;;0.80;;
19782;SDS011;10051;40.294;-3.754;2022-08-19T03:29:12;5.28;;;0.88;;
19782;SDS011;10051;40.294;-3.754;2022-08-19T03:31:38;4.07;;;1.00;;
19782;SDS011;10051;40.294;-3.754;2022-08-19T03:34:05;4.05;;;0.80;;
19782;SDS011;10051;40.294;-3.754;2022-08-19T03:36:32;1.90;;;0.90;;
19782;SDS011;10051;40.294;-3.754;2022-08-19T03:38:59;1.60;;;0.80;;
19782;SDS011;10051;40.294;-3.754;2022-08-19T03:41:47;3.90;;;0.80;;
19782;SDS011;10051;40.294;-3.754;2022-08-19T03:44:13;1.92;;;0.90;;
19782;SDS011;10051;40.294;-3.754;2022-08-19T03:46:42;2.08;;;0.90;;
19782;SDS011;10051;40.294;-3.754;2022-08-19T03:49:08;2.67;;;0.90;;
19782;SDS011;10051;40.294;-3.754;2022-08-19T03:51:35;2.67;;;1.10;;
19782;SDS011;10051;40.294;-3.754;2022-08-19T03:54:03;1.08;;;0.73;;
19782;SDS011;10051;40.294;-3.754;2022-08-19T03:56:30;2.45;;;0.90;;
19782;SDS011;10051;40.294;-3.754;2022-08-19T03:58:58;1.15;;;0.80;;
19782;SDS011;10051;40.294;-3.754;2022-08-19T04:01:26;1.10;;;0.70;;
19782;SDS011;10051;40.294;-3.754;2022-08-19T04:03:54;3.10;;;0.90;;
19782;SDS011;10051;40.294;-3.754;2022-08-19T04:06:22;1.20;;;0.80;;
19782;SDS011;10051;40.294;-3.754;2022-08-19T04:08:50;2.88;;;0.70;;
19782;SDS011;10051;40.294;-3.754;2022-08-19T04:11:20;1.15;;;0.73;;
19782;SDS011;10051;40.294;-3.754;2022-08-19T04:13:50;1.92;;;0.82;;
19782;SDS011;10051;40.294;-3.754;2022-08-19T04:16:18;1.70;;;0.80;;
19782;SDS011;10051;40.294;-3.754;2022-08-19T04:18:45;3.05;;;0.65;;
19782;SDS011;10051;40.294;-3.754;2022-08-19T04:21:15;1.15;;;0.75;;
19782;SDS011;10051;40.294;-3.754;2022-08-19T04:23:47;2.13;;;0.70;;
19782;SDS011;10051;40.294;-3.754;2022-08-19T04:26:17;1.38;;;0.80;;
19782;SDS011;10051;40.294;-3.754;2022-08-19T04:28:45;1.85;;;0.80;;
19782;SDS011;10051;40.294;-3.754;2022-08-19T04:31:19;1.55;;;0.80;;
19782;SDS011;10051;40.294;-3.754;2022-08-19T04:33:55;1.42;;;0.70;;
19782;SDS011;10051;40.294;-3.754;2022-08-19T04:36:23;2.88;;;1.10;;
19782;SDS011;10051;40.294;-3.754;2022-08-19T04:38:53;0.80;;;0.70;;
19782;SDS011;10051;40.294;-3.754;2022-08-19T04:41:20;5.00;;;0.70;;
19782;SDS011;10051;40.294;-3.754;2022-08-19T04:44:05;1.73;;;0.90;;
19782;SDS011;10051;40.294;-3.754;2022-08-19T04:46:31;2.00;;;0.60;;
19782;SDS011;10051;40.294;-3.754;2022-08-19T04:48:57;2.05;;;0.80;;
19782;SDS011;10051;40.294;-3.754;2022-08-19T04:51:26;2.60;;;1.00;;
19782;SDS011;10051;40.294;-3.754;2022-08-19T04:53:52;1.77;;;0.60;;
19782;SDS011;10051;40.294;-3.754;2022-08-19T04:56:18;1.65;;;0.90;;
19782;SDS011;10051;40.294;-3.754;2022-08-19T04:58:45;1.23;;;0.77;;
19782;SDS011;10051;40.294;-3.754;2022-08-19T05:01:17;2.33;;;0.90;;
19782;SDS011;10051;40.294;-3.754;2022-08-19T05:03:44;1.23;;;0.80;;
19782;SDS011;10051;40.294;-3.754;2022-08-19T05:06:11;3.38;;;0.80;;
19782;SDS011;10051;40.294;-3.754;2022-08-19T05:08:38;2.22;;;0.90;;
19782;SDS011;10051;40.294;-3.754;2022-08-19T05:14:04;2.15;;;0.90;;
19782;SDS011;10051;40.294;-3.754;2022-08-19T05:16:30;2.38;;;0.80;;
19782;SDS011;10051;40.294;-3.754;2022-08-19T05:18:56;1.95;;;0.77;;
19782;SDS011;10051;40.294;-3.754;2022-08-19T05:21:41;1.77;;;0.80;;
19782;SDS011;10051;40.294;-3.754;2022-08-19T05:24:26;1.98;;;0.80;;
19782;SDS011;10051;40.294;-3.754;2022-08-19T05:26:53;1.20;;;0.65;;
19782;SDS011;10051;40.294;-3.754;2022-08-19T05:29:21;3.20;;;0.82;;
19782;SDS011;10051;40.294;-3.754;2022-08-19T05:31:48;3.38;;;0.80;;
19782;SDS011;10051;40.294;-3.754;2022-08-19T05:34:15;3.10;;;0.82;;
19782;SDS011;10051;40.294;-3.754;2022-08-19T05:36:42;1.27;;;0.70;;
19782;SDS011;10051;40.294;-3.754;2022-08-19T05:39:11;5.78;;;0.90;;
19782;SDS011;10051;40.294;-3.754;2022-08-19T05:41:43;7.95;;;1.10;;
19782;SDS011;10051;40.294;-3.754;2022-08-19T05:44:09;2.88;;;0.80;;
19782;SDS011;10051;40.294;-3.754;2022-08-19T05:46:36;1.90;;;0.70;;
19782;SDS011;10051;40.294;-3.754;2022-08-19T05:49:06;3.63;;;0.80;;
19782;SDS011;10051;40.294;-3.754;2022-08-19T05:51:33;3.72;;;0.82;;
19782;SDS011;10051;40.294;-3.754;2022-08-19T05:54:02;3.75;;;0.80;;
19782;SDS011;10051;40.294;-3.754;2022-08-19T05:56:29;1.17;;;0.70;;
19782;SDS011;10051;40.294;-3.754;2022-08-19T05:58:55;3.28;;;0.90;;
19782;SDS011;10051;40.294;-3.754;2022-08-19T06:01:23;4.43;;;0.90;;
19782;SDS011;10051;40.294;-3.754;2022-08-19T06:03:50;2.25;;;0.93;;
19782;SDS011;10051;40.294;-3.754;2022-08-19T06:06:16;2.78;;;0.90;;
19782;SDS011;10051;40.294;-3.754;2022-08-19T06:08:42;4.63;;;0.90;;
19782;SDS011;10051;40.294;-3.754;2022-08-19T06:11:18;1.63;;;0.77;;
19782;SDS011;10051;40.294;-3.754;2022-08-19T06:14:11;3.67;;;1.20;;
19782;SDS011;10051;40.294;-3.754;2022-08-19T06:16:42;3.15;;;0.88;;
19782;SDS011;10051;40.294;-3.754;2022-08-19T06:19:11;3.42;;;0.90;;
19782;SDS011;10051;40.294;-3.754;2022-08-19T06:21:41;3.05;;;0.80;;
19782;SDS011;10051;40.294;-3.754;2022-08-19T06:24:09;4.30;;;0.77;;
19782;SDS011;10051;40.294;-3.754;2022-08-19T06:26:38;1.42;;;0.70;;
19782;SDS011;10051;40.294;-3.754;2022-08-19T06:29:06;1.77;;;0.90;;
19782;SDS011;10051;40.294;-3.754;2022-08-19T06:31:33;1.30;;;0.70;;
19782;SDS011;10051;40.294;-3.754;2022-08-19T06:34:03;3.17;;;0.90;;
19782;SDS011;10051;40.294;-3.754;2022-08-19T06:36:31;5.60;;;0.80;;
19782;SDS011;10051;40.294;-3.754;2022-08-19T06:39:02;3.63;;;0.70;;
19782;SDS011;10051;40.294;-3.754;2022-08-19T06:41:52;1.17;;;0.68;;
19782;SDS011;10051;40.294;-3.754;2022-08-19T06:44:20;1.92;;;0.77;;
19782;SDS011;10051;40.294;-3.754;2022-08-19T06:46:48;1.90;;;0.70;;
19782;SDS011;10051;40.294;-3.754;2022-08-19T06:49:14;1.83;;;0.80;;
19782;SDS011;10051;40.294;-3.754;2022-08-19T06:51:42;2.05;;;0.80;;
19782;SDS011;10051;40.294;-3.754;2022-08-19T06:54:12;1.55;;;0.60;;
19782;SDS011;10051;40.294;-3.754;2022-08-19T06:56:39;3.35;;;0.90;;
19782;SDS011;10051;40.294;-3.754;2022-08-19T06:59:08;2.75;;;0.70;;
19782;SDS011;10051;40.294;-3.754;2022-08-19T07:01:40;4.88;;;1.15;;
19782;SDS011;10051;40.294;-3.754;2022-08-19T07:04:10;3.65;;;0.90;;
19782;SDS011;10051;40.294;-3.754;2022-08-19T07:06:37;5.72;;;0.80;;
19782;SDS011;10051;40.294;-3.754;2022-08-19T07:09:03;1.60;;;0.90;;
19782;SDS011;10051;40.294;-3.754;2022-08-19T07:11:30;2.20;;;0.80;;
19782;SDS011;10051;40.294;-3.754;2022-08-19T07:13:56;1.98;;;0.70;;
19782;SDS011;10051;40.294;-3.754;2022-08-19T07:16:21;4.03;;;0.80;;
19782;SDS011;10051;40.294;-3.754;2022-08-19T07:18:47;1.02;;;0.70;;
19782;SDS011;10051;40.294;-3.754;2022-08-19T07:21:32;4.50;;;0.65;;
19782;SDS011;10051;40.294;-3.754;2022-08-19T07:23:58;1.95;;;0.90;;
19782;SDS011;10051;40.294;-3.754;2022-08-19T07:26:26;0.88;;;0.70;;
19782;SDS011;10051;40.294;-3.754;2022-08-19T07:28:54;1.70;;;0.80;;
19782;SDS011;10051;40.294;-3.754;2022-08-19T07:31:22;2.28;;;0.80;;
19782;SDS011;10051;40.294;-3.754;2022-08-19T07:33:49;6.40;;;1.00;;
19782;SDS011;10051;40.294;-3.754;2022-08-19T07:36:17;3.15;;;0.90;;
19782;SDS011;10051;40.294;-3.754;2022-08-19T07:38:47;1.65;;;0.70;;
19782;SDS011;10051;40.294;-3.754;2022-08-19T07:41:14;3.55;;;0.90;;
19782;SDS011;10051;40.294;-3.754;2022-08-19T07:43:43;1.25;;;0.70;;
19782;SDS011;10051;40.294;-3.754;2022-08-19T07:46:09;4.15;;;0.80;;
19782;SDS011;10051;40.294;-3.754;2022-08-19T07:48:35;5.35;;;0.80;;
19782;SDS011;10051;40.294;-3.754;2022-08-19T07:51:02;3.55;;;0.77;;
19782;SDS011;10051;40.294;-3.754;2022-08-19T07:53:30;2.35;;;0.80;;
19782;SDS011;10051;40.294;-3.754;2022-08-19T07:55:57;2.08;;;0.75;;
19782;SDS011;10051;40.294;-3.754;2022-08-19T07:58:26;5.78;;;0.80;;
19782;SDS011;10051;40.294;-3.754;2022-08-19T08:00:52;5.35;;;0.70;;
19782;SDS011;10051;40.294;-3.754;2022-08-19T08:03:19;5.22;;;0.88;;
19782;SDS011;10051;40.294;-3.754;2022-08-19T08:06:06;3.40;;;0.90;;
19782;SDS011;10051;40.294;-3.754;2022-08-19T08:08:50;6.22;;;0.82;;
19782;SDS011;10051;40.294;-3.754;2022-08-19T08:11:34;0.90;;;0.50;;
19782;SDS011;10051;40.294;-3.754;2022-08-19T13:19:22;1.25;;;0.50;;
19782;SDS011;10051;40.294;-3.754;2022-08-19T13:21:50;2.30;;;0.63;;
19782;SDS011;10051;40.294;-3.754;2022-08-19T13:24:16;2.47;;;0.60;;
19782;SDS011;10051;40.294;-3.754;2022-08-19T13:26:43;1.05;;;0.52;;
19782;SDS011;10051;40.294;-3.754;2022-08-19T13:29:08;1.58;;;0.60;;
19782;SDS011;10051;40.294;-3.754;2022-08-19T13:31:52;0.90;;;0.70;;
19782;SDS011;10051;40.294;-3.754;2022-08-19T13:34:36;1.58;;;0.50;;
19782;SDS011;10051;40.294;-3.754;2022-08-19T13:37:03;1.40;;;0.75;;
19782;SDS011;10051;40.294;-3.754;2022-08-19T13:39:30;3.65;;;0.70;;
19782;SDS011;10051;40.294;-3.754;2022-08-19T13:41:59;2.75;;;0.60;;
19782;SDS011;10051;40.294;-3.754;2022-08-19T13:44:25;2.38;;;0.60;;
19782;SDS011;10051;40.294;-3.754;2022-08-19T13:46:54;1.20;;;0.60;;
19782;SDS011;10051;40.294;-3.754;2022-08-19T13:49:24;1.73;;;0.50;;
19782;SDS011;10051;40.294;-3.754;2022-08-19T13:51:49;1.30;;;0.65;;
19782;SDS011;10051;40.294;-3.754;2022-08-19T13:54:15;0.80;;;0.50;;
19782;SDS011;10051;40.294;-3.754;2022-08-19T13:56:42;1.05;;;0.47;;
19782;SDS011;10051;40.294;-3.754;2022-08-19T13:59:09;16.88;;;0.88;;
19782;SDS011;10051;40.294;-3.754;2022-08-19T14:01:35;2.20;;;0.50;;
19782;SDS011;10051;40.294;-3.754;2022-08-19T14:04:02;2.60;;;0.70;;
19782;SDS011;10051;40.294;-3.754;2022-08-19T14:06:28;0.90;;;0.60;;
19782;SDS011;10051;40.294;-3.754;2022-08-19T14:08:53;0.70;;;0.50;;
19782;SDS011;10051;40.294;-3.754;2022-08-19T14:11:19;1.40;;;0.50;;
19782;SDS011;10051;40.294;-3.754;2022-08-19T14:13:44;1.70;;;0.60;;
19782;SDS011;10051;40.294;-3.754;2022-08-19T14:16:11;3.33;;;0.70;;
19782;SDS011;10051;40.294;-3.754;2022-08-19T14:18:38;0.82;;;0.50;;
19782;SDS011;10051;40.294;-3.754;2022-08-19T14:21:04;2.83;;;0.50;;
19782;SDS011;10051;40.294;-3.754;2022-08-19T14:23:31;0.95;;;0.65;;
19782;SDS011;10051;40.294;-3.754;2022-08-19T14:26:08;0.65;;;0.60;;
19782;SDS011;10051;40.294;-3.754;2022-08-19T14:28:36;1.95;;;0.68;;
19782;SDS011;10051;40.294;-3.754;2022-08-19T14:31:02;2.40;;;0.57;;
19782;SDS011;10051;40.294;-3.754;2022-08-19T14:33:28;2.90;;;0.70;;
19782;SDS011;10051;40.294;-3.754;2022-08-19T14:35:53;3.25;;;0.65;;
19782;SDS011;10051;40.294;-3.754;2022-08-19T14:38:19;3.65;;;0.70;;
19782;SDS011;10051;40.294;-3.754;2022-08-19T14:40:45;1.58;;;0.80;;
19782;SDS011;10051;40.294;-3.754;2022-08-19T14:43:11;4.18;;;0.60;;
19782;SDS011;10051;40.294;-3.754;2022-08-19T14:45:37;2.75;;;0.70;;
19782;SDS011;10051;40.294;-3.754;2022-08-19T14:48:05;1.10;;;0.52;;
19782;SDS011;10051;40.294;-3.754;2022-08-19T14:50:32;1.88;;;0.60;;
19782;SDS011;10051;40.294;-3.754;2022-08-19T14:53:02;6.00;;;0.80;;
19782;SDS011;10051;40.294;-3.754;2022-08-19T14:55:34;2.03;;;0.75;;
19782;SDS011;10051;40.294;-3.754;2022-08-19T14:58:00;1.10;;;0.73;;
19782;SDS011;10051;40.294;-3.754;2022-08-19T15:00:26;1.35;;;0.70;;
19782;SDS011;10051;40.294;-3.754;2022-08-19T15:02:52;2.70;;;0.60;;
19782;SDS011;10051;40.294;-3.754;2022-08-19T15:05:19;1.13;;;0.80;;
19782;SDS011;10051;40.294;-3.754;2022-08-19T15:07:45;4.18;;;0.70;;
19782;SDS011;10051;40.294;-3.754;2022-08-19T15:10:11;0.70;;;0.60;;
19782;SDS011;10051;40.294;-3.754;2022-08-19T15:12:39;2.20;;;0.70;;
19782;SDS011;10051;40.294;-3.754;2022-08-19T15:15:06;0.82;;;0.70;;
19782;SDS011;10051;40.294;-3.754;2022-08-19T15:17:32;1.80;;;0.60;;
19782;SDS011;10051;40.294;-3.754;2022-08-19T15:19:58;2.15;;;0.70;;
19782;SDS011;10051;40.294;-3.754;2022-08-19T15:22:23;1.10;;;0.60;;
19782;SDS011;10051;40.294;-3.754;2022-08-19T15:24:49;2.58;;;0.60;;
19782;SDS011;10051;40.294;-3.754;2022-08-19T15:27:18;2.08;;;0.60;;
19782;SDS011;10051;40.294;-3.754;2022-08-19T15:29:43;0.95;;;0.60;;
19782;SDS011;10051;40.294;-3.754;2022-08-19T15:32:10;2.85;;;0.70;;
19782;SDS011;10051;40.294;-3.754;2022-08-19T15:34:35;1.15;;;0.63;;
19782;SDS011;10051;40.294;-3.754;2022-08-19T15:37:01;2.33;;;0.60;;
19782;SDS011;10051;40.294;-3.754;2022-08-19T15:39:28;0.70;;;0.60;;
19782;SDS011;10051;40.294;-3.754;2022-08-19T15:41:53;3.15;;;0.70;;
19782;SDS011;10051;40.294;-3.754;2022-08-19T15:44:19;1.35;;;0.60;;
19782;SDS011;10051;40.294;-3.754;2022-08-19T15:46:46;1.90;;;0.60;;
19782;SDS011;10051;40.294;-3.754;2022-08-19T15:49:14;2.65;;;0.90;;
19782;SDS011;10051;40.294;-3.754;2022-08-19T15:51:43;3.10;;;0.80;;
19782;SDS011;10051;40.294;-3.754;2022-08-19T15:54:11;0.70;;;0.55;;
19782;SDS011;10051;40.294;-3.754;2022-08-19T15:56:39;1.02;;;0.68;;
19782;SDS011;10051;40.294;-3.754;2022-08-19T15:59:23;2.30;;;0.60;;
19782;SDS011;10051;40.294;-3.754;2022-08-19T16:02:07;1.27;;;0.60;;
19782;SDS011;10051;40.294;-3.754;2022-08-19T16:04:51;2.45;;;0.50;;
19782;SDS011;10051;40.294;-3.754;2022-08-19T16:07:36;2.22;;;0.70;;
19782;SDS011;10051;40.294;-3.754;2022-08-19T16:10:02;0.95;;;0.60;;
19782;SDS011;10051;40.294;-3.754;2022-08-19T16:12:29;2.05;;;0.60;;
19782;SDS011;10051;40.294;-3.754;2022-08-19T16:14:55;4.07;;;0.70;;
19782;SDS011;10051;40.294;-3.754;2022-08-19T16:17:21;4.43;;;0.75;;
19782;SDS011;10051;40.294;-3.754;2022-08-19T16:19:47;3.33;;;0.75;;
19782;SDS011;10051;40.294;-3.754;2022-08-19T16:22:13;2.28;;;0.80;;
19782;SDS011;10051;40.294;-3.754;2022-08-19T16:24:39;1.98;;;0.63;;
19782;SDS011;10051;40.294;-3.754;2022-08-19T16:27:04;2.65;;;0.70;;
19782;SDS011;10051;40.294;-3.754;2022-08-19T16:29:30;4.13;;;0.80;;
19782;SDS011;10051;40.294;-3.754;2022-08-19T16:31:55;2.03;;;0.80;;
19782;SDS011;10051;40.294;-3.754;2022-08-19T16:34:22;1.85;;;0.70;;
19782;SDS011;10051;40.294;-3.754;2022-08-19T16:36:48;1.20;;;0.70;;
19782;SDS011;10051;40.294;-3.754;2022-08-19T16:39:14;1.27;;;0.70;;
19782;SDS011;10051;40.294;-3.754;2022-08-19T16:41:42;1.50;;;0.80;;
19782;SDS011;10051;40.294;-3.754;2022-08-19T16:44:09;2.28;;;0.90;;
19782;SDS011;10051;40.294;-3.754;2022-08-19T16:46:38;2.72;;;0.90;;
19782;SDS011;10051;40.294;-3.754;2022-08-19T16:49:06;2.65;;;0.80;;
19782;SDS011;10051;40.294;-3.754;2022-08-19T16:51:33;1.85;;;0.90;;
19782;SDS011;10051;40.294;-3.754;2022-08-19T16:53:59;1.95;;;0.70;;
19782;SDS011;10051;40.294;-3.754;2022-08-19T16:56:25;2.08;;;1.00;;
19782;SDS011;10051;40.294;-3.754;2022-08-19T16:58:51;6.18;;;0.90;;
19782;SDS011;10051;40.294;-3.754;2022-08-19T17:01:17;1.90;;;1.00;;
19782;SDS011;10051;40.294;-3.754;2022-08-19T17:03:43;5.63;;;1.13;;
19782;SDS011;10051;40.294;-3.754;2022-08-19T17:06:13;3.53;;;0.98;;
19782;SDS011;10051;40.294;-3.754;2022-08-19T17:08:41;4.07;;;1.63;;
19782;SDS011;10051;40.294;-3.754;2022-08-19T17:11:07;1.63;;;1.20;;
19782;SDS011;10051;40.294;-3.754;2022-08-19T17:13:34;3.05;;;0.98;;
19782;SDS011;10051;40.294;-3.754;2022-08-19T17:16:00;2.10;;;0.73;;
19782;SDS011;10051;40.294;-3.754;2022-08-19T17:18:26;3.55;;;0.80;;
19782;SDS011;10051;40.294;-3.754;2022-08-19T17:20:51;1.63;;;0.80;;
19782;SDS011;10051;40.294;-3.754;2022-08-19T17:23:18;1.17;;;0.70;;
19782;SDS011;10051;40.294;-3.754;2022-08-19T17:25:46;2.78;;;0.98;;
19782;SDS011;10051;40.294;-3.754;2022-08-19T17:28:15;2.20;;;0.70;;
19782;SDS011;10051;40.294;-3.754;2022-08-19T17:30:45;2.17;;;0.80;;
19782;SDS011;10051;40.294;-3.754;2022-08-19T17:33:11;2.88;;;0.82;;
19782;SDS011;10051;40.294;-3.754;2022-08-19T17:35:37;1.90;;;1.05;;
19782;SDS011;10051;40.294;-3.754;2022-08-19T17:38:07;2.78;;;0.90;;
19782;SDS011;10051;40.294;-3.754;2022-08-19T17:40:35;2.15;;;0.80;;
19782;SDS011;10051;40.294;-3.754;2022-08-19T17:43:01;1.60;;;0.90;;
19782;SDS011;10051;40.294;-3.754;2022-08-19T17:45:26;2.28;;;0.80;;
19782;SDS011;10051;40.294;-3.754;2022-08-19T17:47:52;2.20;;;0.90;;
19782;SDS011;10051;40.294;-3.754;2022-08-19T17:50:19;3.08;;;1.00;;
19782;SDS011;10051;40.294;-3.754;2022-08-19T17:52:45;4.53;;;0.90;;
19782;SDS011;10051;40.294;-3.754;2022-08-19T17:55:13;4.68;;;0.90;;
19782;SDS011;10051;40.294;-3.754;2022-08-19T17:57:39;2.28;;;0.90;;
19782;SDS011;10051;40.294;-3.754;2022-08-19T18:00:06;1.75;;;1.00;;
19782;SDS011;10051;40.294;-3.754;2022-08-19T18:05:14;2.05;;;1.00;;
19782;SDS011;10051;40.294;-3.754;2022-08-19T18:07:40;3.42;;;1.00;;
19782;SDS011;10051;40.294;-3.754;2022-08-19T18:10:06;2.17;;;1.00;;
19782;SDS011;10051;40.294;-3.754;2022-08-19T18:12:32;1.92;;;0.82;;
19782;SDS011;10051;40.294;-3.754;2022-08-19T18:15:00;1.40;;;0.80;;
19782;SDS011;10051;40.294;-3.754;2022-08-19T18:17:28;4.20;;;0.90;;
19782;SDS011;10051;40.294;-3.754;2022-08-19T18:19:54;1.55;;;0.88;;
19782;SDS011;10051;40.294;-3.754;2022-08-19T18:22:27;1.33;;;0.80;;
19782;SDS011;10051;40.294;-3.754;2022-08-19T18:24:55;3.55;;;1.00;;
19782;SDS011;10051;40.294;-3.754;2022-08-19T18:27:23;1.65;;;1.00;;
19782;SDS011;10051;40.294;-3.754;2022-08-19T18:29:50;3.55;;;1.00;;
19782;SDS011;10051;40.294;-3.754;2022-08-19T18:32:16;2.42;;;0.90;;
19782;SDS011;10051;40.294;-3.754;2022-08-19T18:34:43;1.80;;;0.80;;
19782;SDS011;10051;40.294;-3.754;2022-08-19T18:37:10;1.40;;;1.02;;
19782;SDS011;10051;40.294;-3.754;2022-08-19T18:39:36;2.25;;;0.80;;
19782;SDS011;10051;40.294;-3.754;2022-08-19T18:42:20;1.70;;;0.80;;
19782;SDS011;10051;40.294;-3.754;2022-08-19T18:45:04;3.90;;;1.00;;
19782;SDS011;10051;40.294;-3.754;2022-08-19T18:47:49;1.08;;;0.80;;
19782;SDS011;10051;40.294;-3.754;2022-08-19T18:50:33;2.03;;;1.00;;
19782;SDS011;10051;40.294;-3.754;2022-08-19T18:52:58;2.08;;;0.90;;
19782;SDS011;10051;40.294;-3.754;2022-08-19T18:55:24;1.33;;;0.80;;
19782;SDS011;10051;40.294;-3.754;2022-08-19T18:57:51;1.98;;;0.90;;
19782;SDS011;10051;40.294;-3.754;2022-08-19T19:00:17;3.83;;;0.90;;
19782;SDS011;10051;40.294;-3.754;2022-08-19T19:02:42;12.95;;;4.90;;
19782;SDS011;10051;40.294;-3.754;2022-08-19T19:05:11;5.43;;;2.65;;
19782;SDS011;10051;40.294;-3.754;2022-08-19T19:07:39;3.78;;;1.60;;
19782;SDS011;10051;40.294;-3.754;2022-08-19T19:10:05;3.35;;;1.60;;
19782;SDS011;10051;40.294;-3.754;2022-08-19T19:12:35;2.33;;;1.20;;
19782;SDS011;10051;40.294;-3.754;2022-08-19T19:15:04;5.00;;;1.40;;
19782;SDS011;10051;40.294;-3.754;2022-08-19T19:17:30;8.65;;;1.80;;
19782;SDS011;10051;40.294;-3.754;2022-08-19T19:19:56;4.97;;;2.42;;
19782;SDS011;10051;40.294;-3.754;2022-08-19T19:22:22;8.25;;;2.90;;
19782;SDS011;10051;40.294;-3.754;2022-08-19T19:24:48;5.97;;;2.60;;
19782;SDS011;10051;40.294;-3.754;2022-08-19T19:27:16;6.60;;;2.60;;
19782;SDS011;10051;40.294;-3.754;2022-08-19T19:29:44;7.00;;;2.40;;
19782;SDS011;10051;40.294;-3.754;2022-08-19T19:32:19;7.07;;;2.50;;
19782;SDS011;10051;40.294;-3.754;2022-08-19T19:34:46;7.03;;;2.17;;
19782;SDS011;10051;40.294;-3.754;2022-08-19T19:37:12;4.88;;;1.92;;
19782;SDS011;10051;40.294;-3.754;2022-08-19T19:39:37;6.05;;;2.05;;
19782;SDS011;10051;40.294;-3.754;2022-08-19T19:42:06;7.35;;;2.90;;
19782;SDS011;10051;40.294;-3.754;2022-08-19T19:44:37;5.82;;;3.40;;
19782;SDS011;10051;40.294;-3.754;2022-08-19T19:47:04;5.45;;;2.80;;
19782;SDS011;10051;40.294;-3.754;2022-08-19T19:49:30;5.35;;;2.80;;